Time;durP1;ratioP1;P1;durP2;ratioP2;P2;SDS_P1;SDS_P2;PMS_P1;PMS_P2;Temp;Humidity;BMP_temperature;BMP_pressure;BME280_temperature;BME280_humidity;BME280_pressure;Samples;Min_cycle;Max_cycle;Signal;HPM_P1;HPM_P2
2022/03/05 00:00:52;;;;;;;52.60;22.90;;;;;;;0.84;74.69;101376.45;1726417;82;21556;-66
2022/03/05 00:03:18;;;;;;;60.08;27.05;;;;;;;0.82;74.72;101380.92;1725754;82;21570;-67
2022/03/05 00:05:44;;;;;;;65.22;26.55;;;;;;;0.84;74.74;101380.39;1733533;82;21019;-67
2022/03/05 00:08:10;;;;;;;61.37;23.02;;;;;;;0.84;74.75;101383.02;1702327;83;21353;-67
2022/03/05 00:10:37;;;;;;;63.45;24.40;;;;;;;0.84;74.76;101377.77;1700878;84;20980;-68
2022/03/05 00:13:03;;;;;;;61.77;24.50;;;;;;;0.82;74.78;101379.14;1700852;84;21674;-67
2022/03/05 00:15:29;;;;;;;60.10;26.50;;;;;;;0.85;74.80;101384.69;1701089;84;21048;-67
2022/03/05 00:17:55;;;;;;;48.95;21.70;;;;;;;0.85;74.83;101380.75;1705035;82;21500;-67
2022/03/05 00:20:23;;;;;;;58.35;22.80;;;;;;;0.84;74.87;101377.77;1732145;82;21825;-68
2022/03/05 00:22:52;;;;;;;50.67;19.85;;;;;;;0.86;74.89;101375.89;1731572;82;21015;-67
2022/03/05 00:25:23;;;;;;;50.20;20.77;;;;;;;0.85;74.92;101376.81;1720236;82;21181;-67
2022/03/05 00:27:50;;;;;;;51.70;24.20;;;;;;;0.80;74.97;101373.15;1717549;82;21062;-68
2022/03/05 00:30:16;;;;;;;45.88;23.02;;;;;;;0.78;75.03;101376.30;1727309;82;21031;-68
2022/03/05 00:32:42;;;;;;;43.83;17.52;;;;;;;0.76;75.06;101378.18;1732870;82;21058;-68
2022/03/05 00:35:10;;;;;;;38.00;16.97;;;;;;;0.73;75.12;101374.88;1733643;82;21049;-68
2022/03/05 00:37:36;;;;;;;37.28;16.97;;;;;;;0.70;75.09;101377.67;1732313;82;21307;-67
2022/03/05 00:40:04;;;;;;;35.85;15.05;;;;;;;0.70;75.11;101376.36;1733202;82;21020;-67
2022/03/05 00:42:30;;;;;;;29.50;13.88;;;;;;;0.69;75.14;101379.44;1731158;82;21010;-68
2022/03/05 00:44:56;;;;;;;28.20;12.95;;;;;;;0.68;75.14;101379.51;1733593;82;21094;-68
2022/03/05 00:47:22;;;;;;;25.23;11.68;;;;;;;0.67;75.17;101377.84;1733432;82;21074;-68
2022/03/05 00:49:48;;;;;;;28.35;12.20;;;;;;;0.64;75.17;101379.28;1733631;82;21157;-68
2022/03/05 00:52:14;;;;;;;21.75;11.22;;;;;;;0.63;75.21;101366.66;1733451;82;21034;-68
2022/03/05 00:54:40;;;;;;;22.77;12.00;;;;;;;0.61;75.22;101375.52;1733620;82;21047;-67
2022/03/05 00:57:06;;;;;;;21.07;11.60;;;;;;;0.59;75.21;101372.15;1733466;82;21007;-68
2022/03/05 00:59:32;;;;;;;25.37;12.10;;;;;;;0.58;75.25;101370.44;1725840;82;21036;-67
2022/03/05 01:01:58;;;;;;;20.70;11.35;;;;;;;0.57;75.29;101374.84;1728994;82;21107;-67
2022/03/05 01:04:24;;;;;;;19.45;9.53;;;;;;;0.59;75.31;101377.39;1702943;84;21007;-67
2022/03/05 01:06:50;;;;;;;26.70;10.65;;;;;;;0.57;75.33;101373.98;1707758;83;21016;-67
2022/03/05 01:09:16;;;;;;;19.10;9.55;;;;;;;0.56;75.34;101380.19;1733261;81;21054;-67
2022/03/05 01:11:42;;;;;;;18.35;9.30;;;;;;;0.54;75.31;101375.47;1733248;82;21027;-67
2022/03/05 01:14:08;;;;;;;17.00;8.25;;;;;;;0.53;75.31;101377.73;1733370;82;21695;-67
2022/03/05 01:16:35;;;;;;;16.10;7.33;;;;;;;0.50;75.31;101374.33;1733287;82;21484;-67
2022/03/05 01:19:01;;;;;;;21.10;9.03;;;;;;;0.48;75.28;101365.70;1728432;81;21023;-67
2022/03/05 01:21:27;;;;;;;15.88;8.00;;;;;;;0.47;75.27;101371.02;1723656;82;21071;-67
2022/03/05 01:23:55;;;;;;;28.42;10.32;;;;;;;0.44;75.23;101377.28;1722781;83;21003;-67
2022/03/05 01:26:21;;;;;;;14.68;7.25;;;;;;;0.40;75.21;101374.44;1725172;83;21536;-68
2022/03/05 01:28:47;;;;;;;13.53;7.08;;;;;;;0.39;75.17;101371.42;1724859;83;21078;-67
2022/03/05 01:31:14;;;;;;;19.05;8.45;;;;;;;0.36;75.14;101376.83;1725210;83;20904;-67
2022/03/05 01:33:41;;;;;;;14.65;7.03;;;;;;;0.36;75.12;101378.14;1720017;83;21469;-68
2022/03/05 01:36:07;;;;;;;15.68;7.92;;;;;;;0.35;75.06;101375.63;1717061;82;21044;-67
2022/03/05 01:38:33;;;;;;;13.58;7.90;;;;;;;0.33;75.03;101374.84;1694923;84;21633;-67
2022/03/05 01:40:59;;;;;;;13.28;6.55;;;;;;;0.28;74.99;101375.07;1702931;84;20983;-67
2022/03/05 01:43:25;;;;;;;16.23;7.33;;;;;;;0.24;74.95;101372.25;1690466;84;21003;-67
2022/03/05 01:45:51;;;;;;;15.48;7.08;;;;;;;0.20;74.91;101377.73;1694757;84;21011;-67
2022/03/05 01:48:17;;;;;;;16.27;7.17;;;;;;;0.16;74.86;101377.04;1696052;84;21075;-67
2022/03/05 01:50:43;;;;;;;25.85;10.40;;;;;;;0.12;74.84;101376.81;1693311;84;21120;-67
2022/03/05 01:53:09;;;;;;;28.15;13.00;;;;;;;0.08;74.78;101376.58;1699283;84;21060;-67
2022/03/05 01:55:35;;;;;;;21.25;10.13;;;;;;;0.03;74.75;101375.98;1700149;84;21023;-68
2022/03/05 01:58:01;;;;;;;23.05;10.45;;;;;;;-0.01;74.72;101381.00;1700006;84;21054;-68
2022/03/05 02:00:27;;;;;;;18.40;8.33;;;;;;;-0.06;74.68;101379.06;1699245;84;21023;-67
2022/03/05 02:02:53;;;;;;;19.65;8.53;;;;;;;-0.11;74.65;101373.22;1699627;84;21095;-67
2022/03/05 02:05:19;;;;;;;19.17;8.50;;;;;;;-0.16;74.62;101379.15;1699689;84;21533;-67
2022/03/05 02:07:46;;;;;;;19.37;8.65;;;;;;;-0.21;74.62;101374.12;1694749;84;21058;-68
2022/03/05 02:10:12;;;;;;;24.98;9.25;;;;;;;-0.25;74.62;101373.08;1699810;83;21512;-67
2022/03/05 02:12:38;;;;;;;16.60;8.70;;;;;;;-0.29;74.61;101369.77;1699862;84;21499;-67
2022/03/05 02:15:06;;;;;;;20.48;8.65;;;;;;;-0.31;74.59;101374.22;1699587;84;21918;-67
2022/03/05 02:17:32;;;;;;;20.92;9.60;;;;;;;-0.34;74.56;101368.28;1696111;84;21598;-67
2022/03/05 02:19:58;;;;;;;31.42;12.80;;;;;;;-0.35;74.57;101366.61;1698602;84;21559;-67
2022/03/05 02:22:27;;;;;;;46.60;15.88;;;;;;;-0.36;74.57;101367.06;1700850;84;21516;-68
2022/03/05 02:25:03;;;;;;;33.45;12.10;;;;;;;-0.37;74.57;101369.75;1703263;84;21662;-67
2022/03/05 02:27:29;;;;;;;30.80;12.18;;;;;;;-0.40;74.57;101369.91;1703273;84;22122;-67
2022/03/05 02:29:58;;;;;;;23.60;9.65;;;;;;;-0.42;74.57;101369.15;1703296;84;20995;-68
2022/03/05 02:32:24;;;;;;;24.47;9.63;;;;;;;-0.48;74.56;101365.50;1681468;84;21062;-68
2022/03/05 02:34:50;;;;;;;19.80;9.68;;;;;;;-0.51;74.55;101366.51;1702861;84;21070;-67
2022/03/05 02:37:16;;;;;;;20.40;10.75;;;;;;;-0.53;74.57;101371.81;1703043;84;21007;-67
2022/03/05 02:39:43;;;;;;;20.65;9.68;;;;;;;-0.54;74.58;101366.20;1703226;84;21546;-67
2022/03/05 02:42:10;;;;;;;20.05;10.03;;;;;;;-0.57;74.60;101364.20;1703289;84;21035;-67
2022/03/05 02:44:36;;;;;;;17.62;8.43;;;;;;;-0.59;74.61;101365.57;1702974;84;21006;-67
2022/03/05 02:47:03;;;;;;;20.97;9.95;;;;;;;-0.60;74.61;101367.80;1703009;84;20903;-67
2022/03/05 02:49:29;;;;;;;22.17;10.58;;;;;;;-0.60;74.65;101369.10;1703376;84;21051;-67
2022/03/05 02:51:56;;;;;;;48.05;20.25;;;;;;;-0.63;74.68;101371.88;1702990;84;21471;-67
2022/03/05 02:54:22;;;;;;;20.97;11.18;;;;;;;-0.65;74.71;101368.95;1703178;84;21768;-67
2022/03/05 02:56:48;;;;;;;22.85;10.68;;;;;;;-0.69;74.73;101370.88;1702910;84;21070;-67
2022/03/05 02:59:14;;;;;;;24.57;11.75;;;;;;;-0.71;74.78;101366.19;1702975;84;21597;-67
2022/03/05 03:01:40;;;;;;;24.07;11.93;;;;;;;-0.73;74.82;101366.70;1703170;84;21015;-67
2022/03/05 03:04:06;;;;;;;20.65;10.88;;;;;;;-0.76;74.86;101366.00;1702937;84;21090;-67
2022/03/05 03:06:32;;;;;;;30.75;14.43;;;;;;;-0.84;74.90;101363.75;1702866;84;21027;-67
2022/03/05 03:08:59;;;;;;;23.92;12.35;;;;;;;-0.87;74.91;101363.91;1702801;82;21490;-67
2022/03/05 03:11:25;;;;;;;26.90;11.08;;;;;;;-0.93;74.96;101362.90;1703126;84;21567;-67
2022/03/05 03:13:51;;;;;;;24.45;12.07;;;;;;;-0.95;75.02;101367.34;1702927;84;21649;-67
2022/03/05 03:16:17;;;;;;;19.40;10.70;;;;;;;-0.99;75.02;101365.81;1703010;84;22063;-67
2022/03/05 03:18:43;;;;;;;19.00;10.25;;;;;;;-1.03;75.06;101365.57;1703070;84;21054;-67
2022/03/05 03:21:09;;;;;;;19.30;9.48;;;;;;;-1.07;75.08;101362.25;1703010;84;21026;-67
2022/03/05 03:23:35;;;;;;;16.52;8.33;;;;;;;-1.13;75.13;101365.63;1676281;84;21059;-67
2022/03/05 03:26:01;;;;;;;17.95;8.93;;;;;;;-1.18;75.16;101371.52;1674221;85;20940;-67
2022/03/05 03:28:27;;;;;;;24.35;9.85;;;;;;;-1.23;75.20;101376.13;1674304;85;21043;-67
2022/03/05 03:30:53;;;;;;;18.95;9.75;;;;;;;-1.25;75.26;101371.41;1673743;85;21038;-67
2022/03/05 03:33:19;;;;;;;23.02;11.50;;;;;;;-1.28;75.29;101372.86;1674305;85;21414;-68
2022/03/05 03:35:45;;;;;;;21.37;9.30;;;;;;;-1.31;75.33;101374.32;1673822;85;21480;-67
2022/03/05 03:38:11;;;;;;;20.02;9.05;;;;;;;-1.35;75.40;101372.76;1674344;85;21125;-67
2022/03/05 03:40:37;;;;;;;20.17;8.98;;;;;;;-1.40;75.46;101376.03;1674104;85;21910;-67
2022/03/05 03:43:03;;;;;;;26.52;13.55;;;;;;;-1.42;75.50;101377.88;1674155;85;21756;-67
2022/03/05 03:45:29;;;;;;;20.60;10.13;;;;;;;-1.46;75.53;101377.17;1673957;85;21467;-67
2022/03/05 03:47:55;;;;;;;19.70;10.03;;;;;;;-1.51;75.55;101374.75;1674039;85;21016;-67
2022/03/05 03:50:23;;;;;;;16.75;7.92;;;;;;;-1.55;75.60;101378.91;1674370;85;20927;-67
2022/03/05 03:52:49;;;;;;;21.77;8.73;;;;;;;-1.59;75.62;101376.89;1673896;85;21860;-67
2022/03/05 03:55:17;;;;;;;16.93;8.28;;;;;;;-1.63;75.67;101377.94;1674041;85;21094;-67
2022/03/05 03:57:43;;;;;;;19.45;10.70;;;;;;;-1.66;75.69;101383.31;1674117;85;21044;-68
2022/03/05 04:00:12;;;;;;;15.95;9.18;;;;;;;-1.67;75.71;101386.83;1674089;85;21043;-67
2022/03/05 04:02:39;;;;;;;17.67;8.15;;;;;;;-1.69;75.76;101388.66;1674154;85;21075;-67
2022/03/05 04:05:07;;;;;;;21.52;8.88;;;;;;;-1.72;75.78;101388.79;1674144;85;21976;-67
2022/03/05 04:10:17;;;;;;;19.17;9.78;;;;;;;-1.80;75.86;101384.84;1671439;84;21495;-67
2022/03/05 04:12:43;;;;;;;17.98;8.03;;;;;;;-1.82;75.92;101386.65;1674157;85;21030;-67
2022/03/05 04:15:10;;;;;;;16.62;9.25;;;;;;;-1.85;75.96;101391.56;1674117;85;21018;-67
2022/03/05 04:17:37;;;;;;;23.57;9.40;;;;;;;-1.87;75.98;101389.48;1674131;85;21342;-67
2022/03/05 04:20:07;;;;;;;29.45;14.70;;;;;;;-1.88;76.03;101386.92;1674197;85;21489;-67
2022/03/05 04:22:34;;;;;;;41.73;19.55;;;;;;;-1.91;76.08;101387.92;1674268;84;21064;-67
2022/03/05 04:25:01;;;;;;;37.90;16.82;;;;;;;-1.95;76.11;101390.72;1675266;84;21508;-67
2022/03/05 04:27:27;;;;;;;28.17;13.18;;;;;;;-2.00;76.15;101388.30;1680756;84;21018;-67
2022/03/05 04:29:53;;;;;;;17.85;8.95;;;;;;;-2.03;76.19;101389.28;1702720;84;21197;-67
2022/03/05 04:32:19;;;;;;;21.97;8.70;;;;;;;-2.05;76.22;101393.74;1690687;84;23695;-67
2022/03/05 04:34:45;;;;;;;17.42;8.75;;;;;;;-2.06;76.26;101388.56;1674656;85;21120;-67
2022/03/05 04:37:11;;;;;;;19.82;9.18;;;;;;;-2.08;76.29;101389.10;1680892;84;21012;-67
2022/03/05 04:39:37;;;;;;;18.05;8.30;;;;;;;-2.09;76.32;101388.70;1699611;84;20911;-67
2022/03/05 04:42:03;;;;;;;20.55;8.38;;;;;;;-2.11;76.36;101387.94;1674978;84;21667;-67
2022/03/05 04:44:29;;;;;;;17.05;9.28;;;;;;;-2.12;76.39;101390.14;1674712;85;21012;-67
2022/03/05 04:46:56;;;;;;;14.70;8.63;;;;;;;-2.14;76.41;101388.03;1676241;84;21019;-67
2022/03/05 04:49:22;;;;;;;21.57;10.60;;;;;;;-2.16;76.47;101385.51;1688654;84;21493;-67
2022/03/05 04:51:48;;;;;;;15.35;9.13;;;;;;;-2.17;76.52;101392.09;1687543;84;20994;-67
2022/03/05 04:54:14;;;;;;;18.57;10.38;;;;;;;-2.19;76.57;101388.70;1679204;84;21105;-67
2022/03/05 04:56:40;;;;;;;16.57;9.80;;;;;;;-2.19;76.59;101392.63;1674527;85;21012;-66
2022/03/05 04:59:06;;;;;;;17.27;10.55;;;;;;;-2.20;76.63;101394.84;1674731;85;21072;-67
2022/03/05 05:01:32;;;;;;;15.10;9.35;;;;;;;-2.24;76.68;101390.65;1674291;85;21037;-67
2022/03/05 05:03:58;;;;;;;18.48;8.58;;;;;;;-2.26;76.72;101391.19;1698738;84;21043;-67
2022/03/05 05:06:24;;;;;;;18.77;9.30;;;;;;;-2.29;76.75;101393.93;1707416;84;21166;-67
2022/03/05 05:08:51;;;;;;;17.20;8.58;;;;;;;-2.30;76.80;101397.45;1707679;82;21054;-67
2022/03/05 05:11:17;;;;;;;23.62;10.93;;;;;;;-2.32;76.81;101399.28;1707473;84;21518;-67
2022/03/05 05:13:44;;;;;;;20.80;9.28;;;;;;;-2.40;76.86;101400.05;1681852;84;21008;-67
2022/03/05 05:16:10;;;;;;;17.23;10.10;;;;;;;-2.46;76.88;101397.70;1679500;84;20893;-67
2022/03/05 05:18:36;;;;;;;19.52;10.20;;;;;;;-2.52;76.92;101395.72;1677463;83;21457;-67
2022/03/05 05:21:02;;;;;;;21.35;10.35;;;;;;;-2.55;76.98;101401.07;1679431;85;21618;-67
2022/03/05 05:23:28;;;;;;;16.57;9.33;;;;;;;-2.58;77.00;101401.20;1692818;84;21499;-67
2022/03/05 05:25:54;;;;;;;15.58;10.32;;;;;;;-2.63;77.05;101397.91;1702186;84;21077;-67
2022/03/05 05:28:21;;;;;;;21.87;11.08;;;;;;;-2.63;77.09;101395.30;1702576;84;21003;-67
2022/03/05 05:30:47;;;;;;;21.07;10.20;;;;;;;-2.64;77.13;101395.38;1702174;84;21734;-66
2022/03/05 05:33:13;;;;;;;20.85;10.95;;;;;;;-2.69;77.18;101398.62;1702449;84;21014;-66
2022/03/05 05:35:39;;;;;;;34.70;14.13;;;;;;;-2.73;77.19;101400.50;1702341;84;21063;-66
2022/03/05 05:38:05;;;;;;;29.00;12.00;;;;;;;-2.76;77.21;101400.63;1702349;84;20899;-67
2022/03/05 05:40:31;;;;;;;25.97;11.15;;;;;;;-2.75;77.23;101400.18;1701655;84;21488;-66
2022/03/05 05:42:57;;;;;;;25.15;10.90;;;;;;;-2.74;77.27;101409.23;1702216;84;21428;-67
2022/03/05 05:45:23;;;;;;;47.75;20.90;;;;;;;-2.74;77.29;101409.23;1702056;84;26599;-67
2022/03/05 05:47:49;;;;;;;65.32;23.87;;;;;;;-2.73;77.31;101410.94;1702117;84;21125;-66
2022/03/05 05:50:15;;;;;;;41.45;18.77;;;;;;;-2.73;77.34;101421.38;1702879;84;21011;-67
2022/03/05 05:52:41;;;;;;;46.88;20.10;;;;;;;-2.72;77.37;101419.18;1702798;84;20923;-67
2022/03/05 05:55:08;;;;;;;54.48;22.85;;;;;;;-2.75;77.39;101410.17;1702759;84;21160;-67
2022/03/05 05:57:34;;;;;;;59.08;26.68;;;;;;;-2.76;77.41;101411.52;1702569;84;20999;-67
2022/03/05 06:00:00;;;;;;;51.68;25.10;;;;;;;-2.72;77.46;101414.41;1703102;84;21078;-67
2022/03/05 06:02:26;;;;;;;63.13;28.32;;;;;;;-2.67;77.52;101417.22;1702173;84;21547;-67
2022/03/05 06:04:52;;;;;;;57.80;25.52;;;;;;;-2.66;77.52;101416.31;1702844;84;22189;-67
2022/03/05 06:07:18;;;;;;;44.10;18.57;;;;;;;-2.63;77.56;101420.10;1702824;84;21094;-67
2022/03/05 06:09:44;;;;;;;36.83;17.02;;;;;;;-2.59;77.58;101425.60;1701889;83;21487;-68
2022/03/05 06:12:10;;;;;;;43.13;19.35;;;;;;;-2.53;77.61;101433.17;1701175;84;26587;-67
2022/03/05 06:14:36;;;;;;;41.63;18.05;;;;;;;-2.47;77.65;101433.86;1701919;84;21476;-67
2022/03/05 06:17:03;;;;;;;31.10;14.20;;;;;;;-2.42;77.68;101425.36;1704944;84;21518;-67
2022/03/05 06:19:29;;;;;;;38.20;18.48;;;;;;;-2.36;77.69;101435.58;1702714;84;22110;-67
2022/03/05 06:21:55;;;;;;;40.38;18.12;;;;;;;-2.31;77.71;101429.69;1700939;84;21046;-67
2022/03/05 06:24:21;;;;;;;39.05;17.57;;;;;;;-2.25;77.73;101435.52;1698268;84;22277;-67
2022/03/05 06:26:47;;;;;;;32.17;16.12;;;;;;;-2.09;77.72;101433.13;1701337;84;21053;-68
2022/03/05 06:29:13;;;;;;;34.30;18.10;;;;;;;-1.79;77.67;101430.95;1710545;82;21062;-68
2022/03/05 06:31:39;;;;;;;38.78;19.17;;;;;;;-1.46;77.62;101439.09;1703390;83;21789;-68
2022/03/05 06:34:05;;;;;;;38.67;18.87;;;;;;;-1.09;77.59;101443.08;1702528;84;21010;-68
2022/03/05 06:36:31;;;;;;;42.17;21.27;;;;;;;-0.80;77.65;101439.93;1699518;84;20935;-68
2022/03/05 06:38:57;;;;;;;30.85;14.68;;;;;;;-0.64;77.69;101440.92;1702570;84;20983;-67
2022/03/05 06:41:23;;;;;;;38.55;18.02;;;;;;;-0.44;77.74;101435.16;1702358;84;20982;-68
2022/03/05 06:43:49;;;;;;;30.37;13.40;;;;;;;-0.34;77.79;101437.27;1702381;84;21157;-68
2022/03/05 06:46:15;;;;;;;31.60;13.53;;;;;;;-0.23;77.82;101444.14;1702545;84;21050;-68
2022/03/05 06:48:41;;;;;;;30.25;13.10;;;;;;;-0.14;77.83;101444.16;1702413;84;21030;-68
2022/03/05 06:51:07;;;;;;;28.20;14.33;;;;;;;-0.09;77.80;101446.92;1702377;84;21075;-68
2022/03/05 06:53:33;;;;;;;33.50;15.78;;;;;;;-0.04;77.83;101445.39;1702833;84;21042;-68
2022/03/05 06:55:59;;;;;;;49.48;21.10;;;;;;;0.03;77.79;101445.47;1702976;84;21523;-68
2022/03/05 06:58:25;;;;;;;39.48;19.17;;;;;;;0.12;77.78;101443.69;1702081;84;21045;-68
2022/03/05 07:00:51;;;;;;;56.58;27.22;;;;;;;0.19;77.68;101443.75;1702514;84;21653;-68
2022/03/05 07:03:17;;;;;;;49.33;24.50;;;;;;;0.34;77.67;101440.35;1702251;84;21548;-68
2022/03/05 07:05:43;;;;;;;40.70;19.15;;;;;;;0.53;77.65;101443.34;1702289;84;21094;-68
2022/03/05 07:08:09;;;;;;;32.93;17.52;;;;;;;0.61;77.56;101446.38;1702285;82;21747;-68
2022/03/05 07:10:35;;;;;;;33.98;15.83;;;;;;;0.73;77.55;101438.72;1701571;84;21529;-68
2022/03/05 07:13:01;;;;;;;25.75;11.55;;;;;;;0.73;77.51;101444.44;1702337;84;21046;-68
2022/03/05 07:15:27;;;;;;;35.40;12.82;;;;;;;0.76;77.39;101444.27;1702084;84;21022;-68
2022/03/05 07:17:53;;;;;;;23.75;10.50;;;;;;;0.76;77.27;101446.89;1702280;84;21015;-68
2022/03/05 07:20:20;;;;;;;23.60;10.43;;;;;;;0.91;77.24;101452.64;1702296;84;21479;-68
2022/03/05 07:22:46;;;;;;;24.67;9.75;;;;;;;0.87;77.16;101456.36;1702103;84;21610;-68
2022/03/05 07:25:12;;;;;;;18.35;8.95;;;;;;;0.88;77.08;101456.75;1702359;84;21034;-68
2022/03/05 07:27:39;;;;;;;122.07;32.93;;;;;;;0.94;76.97;101460.35;1701208;84;21023;-68
2022/03/05 07:30:07;;;;;;;96.72;32.03;;;;;;;1.04;76.82;101463.32;1702258;84;21019;-68
2022/03/05 07:32:33;;;;;;;24.23;10.20;;;;;;;1.12;76.73;101464.61;1702137;84;21160;-68
2022/03/05 07:34:59;;;;;;;20.65;9.25;;;;;;;1.20;76.64;101457.14;1706029;84;21012;-68
2022/03/05 07:37:25;;;;;;;19.40;9.40;;;;;;;1.25;76.58;101460.37;1703453;84;21007;-68
2022/03/05 07:39:51;;;;;;;21.48;8.30;;;;;;;1.29;76.48;101469.78;1702320;84;21114;-68
2022/03/05 07:42:17;;;;;;;18.02;8.75;;;;;;;1.33;76.41;101465.21;1702262;84;21023;-68
2022/03/05 07:44:43;;;;;;;19.00;7.62;;;;;;;1.34;76.25;101467.73;1705543;84;21240;-68
2022/03/05 07:47:09;;;;;;;18.02;7.17;;;;;;;1.31;76.16;101472.31;1702129;84;21544;-67
2022/03/05 07:49:35;;;;;;;17.77;8.00;;;;;;;1.28;76.08;101484.31;1702347;84;21525;-68
2022/03/05 07:52:01;;;;;;;16.05;8.18;;;;;;;1.19;75.99;101475.62;1702330;84;21535;-68
2022/03/05 07:54:28;;;;;;;18.10;7.97;;;;;;;1.16;75.89;101477.94;1701716;84;20999;-68
2022/03/05 07:56:55;;;;;;;23.60;9.63;;;;;;;1.08;75.71;101476.21;1702485;82;21093;-67
2022/03/05 07:59:21;;;;;;;22.93;8.83;;;;;;;1.12;75.66;101477.75;1702354;84;21011;-68
2022/03/05 08:01:47;;;;;;;22.52;9.28;;;;;;;1.19;75.55;101481.73;1702285;84;21523;-68
2022/03/05 08:04:13;;;;;;;22.75;9.23;;;;;;;1.23;75.50;101477.16;1702426;84;21050;-68
2022/03/05 08:06:39;;;;;;;21.60;10.70;;;;;;;1.31;75.41;101479.73;1702315;84;21078;-68
2022/03/05 08:09:06;;;;;;;24.80;11.57;;;;;;;1.36;75.29;101482.11;1701093;83;22034;-68
2022/03/05 08:11:32;;;;;;;23.35;10.20;;;;;;;1.36;75.24;101484.28;1701484;83;21078;-68
2022/03/05 08:13:58;;;;;;;20.30;9.08;;;;;;;1.32;75.11;101485.38;1702631;84;21046;-68
2022/03/05 08:16:24;;;;;;;20.95;9.20;;;;;;;1.40;75.04;101484.96;1702353;84;21010;-69
2022/03/05 08:18:50;;;;;;;15.10;7.58;;;;;;;1.36;74.91;101486.91;1702559;84;21095;-68
2022/03/05 08:21:16;;;;;;;18.52;9.38;;;;;;;1.29;74.84;101486.86;1701985;83;21186;-68
2022/03/05 08:23:42;;;;;;;16.40;8.63;;;;;;;1.32;74.77;101493.27;1702362;84;21054;-68
2022/03/05 08:26:13;;;;;;;18.37;8.78;;;;;;;1.42;74.73;101491.81;1697090;84;21074;-69
2022/03/05 08:28:37;;;;;;;22.80;9.83;;;;;;;1.39;74.57;101484.11;1701370;84;21491;-69
2022/03/05 08:31:03;;;;;;;27.42;9.83;;;;;;;1.49;74.56;101481.81;1696410;84;21082;-68
2022/03/05 08:33:30;;;;;;;19.85;10.08;;;;;;;1.67;74.49;101493.07;1700668;84;21136;-69
2022/03/05 08:35:56;;;;;;;35.48;14.45;;;;;;;1.75;74.39;101489.09;1704359;84;21050;-68
2022/03/05 08:38:22;;;;;;;23.55;9.40;;;;;;;1.87;74.37;101491.47;1704747;84;21066;-69
2022/03/05 08:40:48;;;;;;;27.93;15.30;;;;;;;1.97;74.28;101489.53;1703173;84;20999;-69
2022/03/05 08:43:14;;;;;;;19.23;8.63;;;;;;;2.02;74.19;101490.59;1702797;84;21014;-69
2022/03/05 08:45:40;;;;;;;16.97;8.68;;;;;;;2.09;74.07;101494.56;1702465;83;21054;-69
2022/03/05 08:48:06;;;;;;;23.22;8.98;;;;;;;2.14;74.03;101496.47;1702565;84;21046;-69
2022/03/05 08:50:35;;;;;;;42.10;21.73;;;;;;;2.15;73.91;101495.52;1690472;84;21035;-68
2022/03/05 08:53:02;;;;;;;35.20;12.40;;;;;;;2.19;73.81;101500.98;1701781;84;21160;-69
2022/03/05 08:55:28;;;;;;;24.50;10.45;;;;;;;2.20;73.70;101498.73;1702488;84;21018;-69
2022/03/05 08:57:54;;;;;;;16.57;7.95;;;;;;;2.25;73.66;101492.72;1702446;84;21136;-69
2022/03/05 09:00:20;;;;;;;21.00;9.33;;;;;;;2.31;73.54;101498.96;1702193;84;21002;-69
2022/03/05 09:02:46;;;;;;;18.32;8.73;;;;;;;2.35;73.42;101499.63;1702583;84;21021;-69
2022/03/05 09:05:14;;;;;;;19.15;7.80;;;;;;;2.39;73.27;101507.23;1700805;84;21032;-69
2022/03/05 09:07:42;;;;;;;25.88;10.20;;;;;;;2.36;73.17;101506.56;1700045;84;21519;-69
2022/03/05 09:10:09;;;;;;;23.92;10.85;;;;;;;2.37;73.06;101506.48;1700521;83;21165;-69
2022/03/05 09:12:35;;;;;;;18.35;9.05;;;;;;;2.44;72.96;101501.23;1700609;84;21556;-69
2022/03/05 09:15:01;;;;;;;26.48;12.18;;;;;;;2.46;72.82;101503.30;1700328;84;21057;-69
2022/03/05 09:17:27;;;;;;;20.23;9.63;;;;;;;2.46;72.69;101503.30;1700688;84;21116;-69
2022/03/05 09:19:53;;;;;;;37.60;11.45;;;;;;;2.53;72.60;101504.27;1703750;82;20959;-68
2022/03/05 09:22:20;;;;;;;52.20;32.23;;;;;;;2.67;72.57;101499.88;1702483;84;21148;-69
2022/03/05 09:24:47;;;;;;;34.60;20.25;;;;;;;2.78;72.44;101503.18;1696744;84;21506;-69
2022/03/05 09:27:13;;;;;;;23.50;10.95;;;;;;;2.80;72.33;101502.14;1679593;84;21508;-69
2022/03/05 09:29:39;;;;;;;18.90;9.53;;;;;;;2.88;72.19;101504.31;1679538;84;21116;-69
2022/03/05 09:32:06;;;;;;;23.75;13.93;;;;;;;2.84;72.06;101497.53;1695486;83;21042;-69
2022/03/05 09:34:32;;;;;;;20.95;10.05;;;;;;;2.76;71.97;101497.14;1710068;83;21066;-69
2022/03/05 09:36:58;;;;;;;24.02;10.15;;;;;;;2.58;71.78;101508.78;1710285;83;21031;-69
2022/03/05 09:39:24;;;;;;;18.30;8.68;;;;;;;2.51;71.66;101503.89;1710474;83;20986;-69
2022/03/05 09:41:51;;;;;;;20.00;9.25;;;;;;;2.71;71.66;101501.86;1710576;83;21069;-69
2022/03/05 09:44:17;;;;;;;19.05;8.73;;;;;;;2.87;71.58;101503.45;1710650;83;21038;-69
2022/03/05 09:46:43;;;;;;;101.00;32.15;;;;;;;2.93;71.43;101499.59;1708854;83;21990;-68
2022/03/05 09:49:09;;;;;;;57.43;20.75;;;;;;;2.94;71.32;101501.30;1679012;84;21086;-69
2022/03/05 09:51:35;;;;;;;36.45;16.00;;;;;;;3.20;71.26;101498.37;1679270;85;21070;-69
2022/03/05 09:54:02;;;;;;;19.87;10.38;;;;;;;3.20;71.02;101496.55;1679249;85;21043;-68
2022/03/05 09:56:28;;;;;;;18.92;10.28;;;;;;;3.27;71.00;101501.81;1661714;85;21062;-69
2022/03/05 09:58:55;;;;;;;94.37;31.60;;;;;;;3.36;70.88;101495.98;1678926;85;22011;-69
2022/03/05 10:01:21;;;;;;;22.17;11.00;;;;;;;3.36;70.77;101498.63;1679250;85;21078;-69
2022/03/05 10:03:49;;;;;;;23.02;11.97;;;;;;;3.31;70.70;101496.73;1679263;85;21022;-69
2022/03/05 10:06:21;;;;;;;21.17;11.25;;;;;;;3.36;70.60;101497.30;1679198;85;21526;-69
2022/03/05 10:08:47;;;;;;;39.18;16.45;;;;;;;3.39;70.55;101493.15;1678359;85;21483;-69
2022/03/05 10:11:14;;;;;;;18.60;9.90;;;;;;;3.56;70.45;101494.70;1679351;85;21242;-69
2022/03/05 10:13:41;;;;;;;23.45;10.72;;;;;;;3.53;70.15;101501.03;1679285;85;21350;-69
2022/03/05 10:16:29;;;;;;;18.70;9.20;;;;;;;3.46;70.04;101498.41;1679121;85;21006;-69
2022/03/05 10:18:58;;;;;;;16.17;10.08;;;;;;;3.46;69.96;101491.81;1678385;85;21019;-69
2022/03/05 10:21:29;;;;;;;22.85;10.90;;;;;;;3.47;69.78;101496.16;1679016;85;21026;-69
2022/03/05 10:24:09;;;;;;;21.82;12.53;;;;;;;3.42;69.60;101492.95;1681848;83;21804;-69
2022/03/05 10:26:53;;;;;;;;;;;;;;;3.51;69.49;101494.17;1708349;84;21467;-69
2022/03/05 10:29:22;;;;;;;21.17;10.60;;;;;;;3.57;69.34;101488.96;1704781;84;20456;-69
2022/03/05 10:32:01;;;;;;;66.35;26.48;;;;;;;3.55;69.18;101486.91;1705981;84;21101;-70
2022/03/05 10:34:29;;;;;;;33.57;16.93;;;;;;;3.62;69.13;101483.78;1705849;84;21001;-69
2022/03/05 10:37:00;;;;;;;77.47;44.30;;;;;;;3.76;68.94;101480.25;1705754;84;21947;-69
2022/03/05 10:39:27;;;;;;;17.62;10.10;;;;;;;3.88;68.77;101482.06;1705662;84;21001;-69
2022/03/05 10:41:54;;;;;;;16.07;9.75;;;;;;;3.89;68.56;101483.77;1705760;84;21054;-69
2022/03/05 10:44:21;;;;;;;17.75;11.15;;;;;;;3.55;68.32;101486.44;1705855;84;21070;-70
2022/03/05 10:46:58;;;;;;;24.80;12.40;;;;;;;3.32;68.13;101486.57;1704988;84;21546;-70
2022/03/05 10:49:32;;;;;;;20.10;8.85;;;;;;;3.20;68.04;101487.33;1702982;84;21078;-69
2022/03/05 10:52:06;;;;;;;77.72;20.82;;;;;;;3.03;67.89;101484.91;1683928;84;21062;-69
2022/03/05 10:54:40;;;;;;;34.70;14.30;;;;;;;2.93;67.77;101482.47;1703326;84;21105;-69
2022/03/05 10:57:18;;;;;;;18.02;9.65;;;;;;;2.90;67.68;101478.70;1690107;84;21029;-70
2022/03/05 10:59:47;;;;;;;15.43;7.17;;;;;;;2.89;67.58;101479.17;1688662;84;21019;-69
2022/03/05 11:02:19;;;;;;;17.52;8.95;;;;;;;2.80;67.46;101473.16;1707371;83;21193;-69
2022/03/05 11:04:46;;;;;;;18.70;9.83;;;;;;;2.96;67.46;101470.41;1693163;84;21483;-69
2022/03/05 11:07:13;;;;;;;29.52;17.45;;;;;;;3.15;67.38;101472.77;1669243;84;21078;-69
2022/03/05 11:09:40;;;;;;;19.15;8.40;;;;;;;3.36;67.25;101460.86;1694411;83;21059;-69
2022/03/05 11:12:08;;;;;;;9.28;5.62;;;;;;;3.55;67.10;101461.39;1721259;83;21488;-69
2022/03/05 11:14:34;;;;;;;19.23;8.90;;;;;;;3.63;66.87;101455.59;1686564;84;21551;-69
2022/03/05 11:17:00;;;;;;;10.82;6.15;;;;;;;3.68;66.65;101462.74;1695138;84;21018;-69